Time;durP1;ratioP1;P1;durP2;ratioP2;P2;SDS_P1;SDS_P2;PMS_P1;PMS_P2;Temp;Humidity;BMP_temperature;BMP_pressure;BME280_temperature;BME280_humidity;BME280_pressure;Samples;Min_cycle;Max_cycle;Signal;HPM_P1;HPM_P2
2022/01/11 00:01:22;;;;;;;39.67;23.08;;;0.60;2201.60;;;;;;5016499;28;20444;-88
2022/01/11 00:03:49;;;;;;;39.63;24.52;;;0.50;2201.60;;;;;;5016591;28;20033;-90
2022/01/11 00:06:39;;;;;;;42.15;24.98;;;0.60;2201.60;;;;;;5016650;28;20032;-90
2022/01/11 00:09:19;;;;;;;37.83;22.65;;;0.60;2201.60;;;;;;5016620;28;20017;-91
2022/01/11 00:11:49;;;;;;;38.42;24.13;;;0.70;2201.60;;;;;;5017432;28;20063;-90
2022/01/11 00:14:16;;;;;;;35.97;22.95;;;0.70;2201.60;;;;;;5016624;28;20025;-89
2022/01/11 00:16:42;;;;;;;40.17;24.83;;;0.70;2201.60;;;;;;5016688;28;20021;-90
2022/01/11 00:19:08;;;;;;;35.97;22.35;;;0.70;2201.60;;;;;;5016517;28;20028;-91
2022/01/11 00:21:39;;;;;;;43.67;25.55;;;0.80;2201.60;;;;;;5017083;28;20021;-91
2022/01/11 00:26:50;;;;;;;39.13;24.02;;;0.60;2201.60;;;;;;5034186;28;20071;-86
2022/01/11 00:29:16;;;;;;;36.67;23.17;;;0.60;2201.60;;;;;;5018757;28;20065;-87
2022/01/11 00:31:44;;;;;;;40.45;26.52;;;0.70;2201.60;;;;;;5021184;28;20026;-89
2022/01/11 00:34:10;;;;;;;37.63;23.35;;;0.70;2201.60;;;;;;5023373;28;20048;-90
2022/01/11 00:36:42;;;;;;;34.55;21.45;;;0.80;2201.60;;;;;;5025835;28;20025;-89
2022/01/11 00:39:10;;;;;;;37.25;24.05;;;0.70;2201.60;;;;;;5025075;28;20025;-88
2022/01/11 00:41:42;;;;;;;62.45;40.10;;;0.70;2201.60;;;;;;5033642;28;20022;-88
2022/01/11 00:44:08;;;;;;;39.70;23.90;;;0.70;2201.60;;;;;;5044371;28;20081;-90
2022/01/11 00:46:35;;;;;;;40.53;24.40;;;0.70;2201.60;;;;;;5032945;28;20033;-89
2022/01/11 00:49:01;;;;;;;37.88;22.45;;;0.60;2201.60;;;;;;5021760;28;20033;-88
2022/01/11 00:51:27;;;;;;;34.30;21.45;;;0.80;2201.60;;;;;;5022108;28;20493;-89
2022/01/11 00:53:53;;;;;;;27.17;17.50;;;0.90;2201.60;;;;;;5021996;28;20030;-89
2022/01/11 00:56:19;;;;;;;32.50;20.80;;;0.90;2201.60;;;;;;5022873;28;20025;-87
2022/01/11 00:58:47;;;;;;;35.75;20.98;;;0.90;2201.60;;;;;;5022800;28;20441;-90
2022/01/11 01:01:13;;;;;;;33.25;22.15;;;0.90;2201.60;;;;;;5021217;28;20022;-89
2022/01/11 01:03:39;;;;;;;33.60;22.35;;;0.90;2201.60;;;;;;5022374;28;20075;-90
2022/01/11 01:06:05;;;;;;;51.00;27.92;;;0.80;2201.60;;;;;;5022285;28;20017;-88
2022/01/11 01:08:31;;;;;;;53.53;28.25;;;0.70;2201.60;;;;;;5021127;28;20080;-88
2022/01/11 01:10:57;;;;;;;36.20;22.65;;;0.80;2201.60;;;;;;5019914;28;20053;-89
2022/01/11 01:13:28;;;;;;;45.22;24.75;;;0.80;2201.60;;;;;;5019584;28;20017;-89
2022/01/11 01:15:56;;;;;;;44.83;25.55;;;0.90;2201.60;;;;;;5019323;28;20074;-89
2022/01/11 01:18:25;;;;;;;33.03;20.63;;;0.90;2201.60;;;;;;5019698;28;20017;-89
2022/01/11 01:20:52;;;;;;;33.25;21.00;;;0.80;2201.60;;;;;;5019441;28;20033;-90
2022/01/11 01:23:20;;;;;;;37.20;21.77;;;0.80;2201.60;;;;;;5019578;28;20021;-90
2022/01/11 01:25:47;;;;;;;37.75;21.77;;;0.80;2201.60;;;;;;5019213;28;20022;-90
2022/01/11 01:28:13;;;;;;;34.58;20.92;;;0.80;2201.60;;;;;;5018998;28;20384;-88
2022/01/11 01:30:40;;;;;;;33.65;19.48;;;0.80;2201.60;;;;;;5019033;28;20412;-89
2022/01/11 01:33:07;;;;;;;36.15;20.48;;;0.90;2201.60;;;;;;5019035;28;20076;-89
2022/01/11 01:35:39;;;;;;;33.00;18.27;;;0.90;2201.60;;;;;;5015535;28;20052;-87
2022/01/11 01:38:10;;;;;;;38.63;22.23;;;0.90;2201.60;;;;;;5015877;28;20061;-91
2022/01/11 01:40:43;;;;;;;38.88;21.85;;;0.90;2201.60;;;;;;5014642;28;20449;-91
2022/01/11 01:43:12;;;;;;;35.95;21.33;;;0.90;2201.60;;;;;;5015649;28;20026;-90
2022/01/11 01:45:43;;;;;;;29.30;18.17;;;0.90;2201.60;;;;;;5015546;28;20028;-93
2022/01/11 01:48:10;;;;;;;33.17;18.25;;;0.90;2201.60;;;;;;5015341;28;20515;-91
2022/01/11 01:50:36;;;;;;;41.72;23.73;;;0.80;2201.60;;;;;;5015298;28;20453;-89
2022/01/11 01:53:07;;;;;;;31.67;18.13;;;0.80;2201.60;;;;;;5015398;28;20053;-89
2022/01/11 01:55:33;;;;;;;33.60;20.30;;;0.90;2201.60;;;;;;5016006;28;20025;-89
2022/01/11 01:57:59;;;;;;;34.08;21.67;;;0.90;2201.60;;;;;;5015894;28;20472;-89
2022/01/11 02:00:29;;;;;;;34.03;21.02;;;0.90;2201.60;;;;;;5016990;28;20044;-88
2022/01/11 02:03:04;;;;;;;34.92;19.70;;;25.60;2201.60;;;;;;5017062;28;20117;-89
2022/01/11 02:05:30;;;;;;;40.55;22.83;;;25.60;2201.60;;;;;;5017420;28;20030;-89
2022/01/11 02:07:56;;;;;;;33.08;20.20;;;25.60;2201.60;;;;;;5016794;28;20109;-89
2022/01/11 02:10:22;;;;;;;33.03;18.92;;;25.70;2201.60;;;;;;5016519;28;20076;-89
2022/01/11 02:12:48;;;;;;;34.00;19.33;;;25.60;2201.60;;;;;;5016351;28;20457;-89
2022/01/11 02:15:14;;;;;;;36.22;20.95;;;0.90;2201.60;;;;;;5015967;28;20394;-88
2022/01/11 02:17:40;;;;;;;39.33;21.90;;;0.90;2201.60;;;;;;5016164;28;20461;-88
2022/01/11 02:20:11;;;;;;;35.50;19.67;;;0.90;2201.60;;;;;;5015843;28;20021;-88
2022/01/11 02:22:37;;;;;;;38.35;21.67;;;0.90;2201.60;;;;;;5015343;28;20022;-90
2022/01/11 02:25:04;;;;;;;37.67;20.30;;;0.90;2201.60;;;;;;5015220;28;20025;-90
2022/01/11 02:27:29;;;;;;;33.67;18.70;;;0.90;2201.60;;;;;;5015206;28;20401;-88
2022/01/11 02:29:56;;;;;;;30.05;18.58;;;0.90;2201.60;;;;;;5015759;28;20124;-89
2022/01/11 02:32:22;;;;;;;28.65;18.48;;;0.90;2201.60;;;;;;5015623;28;20029;-89
2022/01/11 02:34:48;;;;;;;25.92;16.95;;;0.80;2201.60;;;;;;5016255;28;20050;-88
2022/01/11 02:37:14;;;;;;;30.33;20.15;;;0.80;2201.60;;;;;;5017160;28;20143;-89
2022/01/11 02:39:45;;;;;;;31.42;19.02;;;0.90;2201.60;;;;;;5018498;28;20040;-88
2022/01/11 02:42:11;;;;;;;35.63;21.90;;;0.80;2201.60;;;;;;5018477;28;20029;-90
2022/01/11 02:44:37;;;;;;;35.60;22.77;;;0.80;2201.60;;;;;;5017711;28;20025;-91
2022/01/11 02:47:04;;;;;;;36.03;21.33;;;0.80;2201.60;;;;;;5018042;28;20028;-90
2022/01/11 02:49:30;;;;;;;31.58;18.92;;;26.20;2201.60;;;;;;5018286;28;20117;-89
2022/01/11 02:51:56;;;;;;;34.85;20.98;;;0.80;2201.60;;;;;;5019589;28;20022;-88
2022/01/11 02:54:23;;;;;;;35.10;22.50;;;0.80;2201.60;;;;;;5019195;28;20018;-89
2022/01/11 02:56:49;;;;;;;32.20;21.10;;;0.70;2201.60;;;;;;5019711;28;20461;-89
2022/01/11 02:59:15;;;;;;;33.38;19.55;;;0.80;2201.60;;;;;;5019813;28;20022;-88
2022/01/11 03:01:42;;;;;;;28.45;19.42;;;0.80;2201.60;;;;;;5019031;28;20022;-89
2022/01/11 03:04:07;;;;;;;32.38;20.77;;;0.90;2201.60;;;;;;5020195;28;20021;-88
2022/01/11 03:06:33;;;;;;;33.30;21.30;;;0.90;2201.60;;;;;;5019127;28;20440;-90
2022/01/11 03:08:59;;;;;;;31.10;20.25;;;0.90;2201.60;;;;;;5019726;28;20032;-88
2022/01/11 03:11:32;;;;;;;28.98;18.40;;;0.90;2201.60;;;;;;5019490;28;20021;-87
2022/01/11 03:13:59;;;;;;;27.60;17.98;;;0.90;2201.60;;;;;;5020204;28;20072;-90
2022/01/11 03:16:25;;;;;;;34.08;20.92;;;0.90;2201.60;;;;;;5018077;28;20030;-89
2022/01/11 03:18:51;;;;;;;37.03;23.40;;;0.90;2201.60;;;;;;5017992;28;20029;-88
2022/01/11 03:21:17;;;;;;;35.05;23.20;;;0.90;2201.60;;;;;;5017856;28;20022;-88
2022/01/11 03:23:43;;;;;;;35.55;22.70;;;25.60;2201.60;;;;;;5017550;28;20033;-88
2022/01/11 03:26:09;;;;;;;46.95;29.10;;;25.60;2201.60;;;;;;5016506;28;20026;-92
2022/01/11 03:28:35;;;;;;;77.32;43.47;;;25.60;2201.60;;;;;;5017688;28;20120;-88
2022/01/11 03:31:01;;;;;;;65.32;38.63;;;25.60;2201.60;;;;;;5019246;28;20026;-87
2022/01/11 03:33:28;;;;;;;47.53;32.97;;;25.80;2201.60;;;;;;5020756;28;20022;-88
2022/01/11 03:35:55;;;;;;;63.40;38.88;;;25.90;2201.60;;;;;;5022138;28;20026;-90
2022/01/11 03:38:22;;;;;;;34.58;23.85;;;25.70;2201.60;;;;;;5022177;28;20025;-88
2022/01/11 03:40:49;;;;;;;30.17;20.27;;;25.70;2201.60;;;;;;5022060;28;20017;-89
2022/01/11 03:43:16;;;;;;;38.40;22.73;;;25.70;2201.60;;;;;;5021977;28;20025;-88
2022/01/11 03:45:41;;;;;;;29.63;18.27;;;25.80;2201.60;;;;;;5021828;28;20018;-88
2022/01/11 03:48:08;;;;;;;25.67;17.88;;;25.80;2201.60;;;;;;5022149;28;20027;-89
2022/01/11 03:50:35;;;;;;;27.85;17.38;;;25.90;2201.60;;;;;;5022511;28;20026;-89
2022/01/11 03:53:14;;;;;;;28.17;17.88;;;25.90;2201.60;;;;;;5021467;28;20067;-89
2022/01/11 03:58:23;;;;;;;58.78;33.30;;;25.90;2201.60;;;;;;5040511;28;20018;-88
2022/01/11 04:00:50;;;;;;;46.95;25.98;;;26.00;2201.60;;;;;;5022339;28;20029;-88
2022/01/11 04:03:16;;;;;;;26.73;16.85;;;26.00;2201.60;;;;;;5023386;28;20029;-89
2022/01/11 04:05:43;;;;;;;43.90;25.35;;;26.10;2201.60;;;;;;5026496;28;20376;-90
2022/01/11 04:08:09;;;;;;;35.38;21.20;;;26.00;2201.60;;;;;;5026639;28;20026;-90
2022/01/11 04:10:35;;;;;;;25.88;16.77;;;25.60;2201.60;;;;;;5026696;28;20067;-89
2022/01/11 04:13:01;;;;;;;31.10;17.10;;;26.00;2201.60;;;;;;5038285;28;20017;-87
2022/01/11 04:15:27;;;;;;;24.42;15.25;;;26.00;2201.60;;;;;;5035901;28;20021;-89
2022/01/11 04:17:52;;;;;;;25.30;16.10;;;26.00;2201.60;;;;;;5026583;28;20465;-88
2022/01/11 04:20:21;;;;;;;48.67;31.30;;;26.00;2201.60;;;;;;5026527;28;20026;-89
2022/01/11 04:22:48;;;;;;;29.35;19.60;;;25.90;2201.60;;;;;;5026607;28;20022;-89
2022/01/11 04:25:14;;;;;;;22.65;15.10;;;26.00;2201.60;;;;;;5025924;28;20017;-89
2022/01/11 04:27:40;;;;;;;32.72;23.27;;;25.70;2201.60;;;;;;5025935;28;20076;-89
2022/01/11 04:30:06;;;;;;;24.60;17.83;;;26.00;2201.60;;;;;;5026570;28;20044;-89
2022/01/11 04:32:33;;;;;;;27.23;18.02;;;26.00;2201.60;;;;;;5025804;28;20026;-88
2022/01/11 04:34:59;;;;;;;25.23;17.25;;;26.00;2201.60;;;;;;5021914;28;20068;-89
2022/01/11 04:37:25;;;;;;;27.67;18.60;;;26.00;2201.60;;;;;;5022274;28;20101;-89
2022/01/11 04:39:51;;;;;;;28.13;17.77;;;26.00;2201.60;;;;;;5022172;28;20121;-91
2022/01/11 04:42:17;;;;;;;24.77;17.33;;;26.00;2201.60;;;;;;5023459;28;20116;-89
2022/01/11 04:44:43;;;;;;;27.38;19.00;;;26.00;2201.60;;;;;;5024138;28;20029;-88
2022/01/11 04:47:08;;;;;;;25.15;16.73;;;26.00;2201.60;;;;;;5025608;28;20033;-89
2022/01/11 04:49:34;;;;;;;26.55;17.83;;;25.90;2201.60;;;;;;5025417;28;20056;-88
2022/01/11 04:52:00;;;;;;;28.67;18.75;;;25.90;2201.60;;;;;;5023067;28;20083;-90
2022/01/11 04:54:26;;;;;;;33.63;20.15;;;26.00;2201.60;;;;;;5019792;28;20480;-90
2022/01/11 04:56:52;;;;;;;35.25;23.92;;;0.90;2201.60;;;;;;5020620;28;20176;-90
2022/01/11 04:59:18;;;;;;;31.70;22.00;;;25.90;2201.60;;;;;;5019963;28;20021;-89
2022/01/11 05:01:44;;;;;;;30.17;19.52;;;25.90;2201.60;;;;;;5019100;28;20052;-89
2022/01/11 05:04:10;;;;;;;26.35;19.08;;;25.90;2201.60;;;;;;5018740;28;20022;-89
2022/01/11 05:06:36;;;;;;;25.55;17.13;;;25.90;2201.60;;;;;;5022022;28;20084;-91
2022/01/11 05:09:02;;;;;;;28.08;18.85;;;25.80;2201.60;;;;;;5021571;28;20030;-88
2022/01/11 05:11:28;;;;;;;28.55;19.52;;;25.80;2201.60;;;;;;5020546;28;20056;-89
2022/01/11 05:13:54;;;;;;;31.02;19.13;;;25.90;2201.60;;;;;;5019681;28;20022;-89
2022/01/11 05:16:19;;;;;;;29.40;19.08;;;25.90;2201.60;;;;;;5020602;28;20437;-89
2022/01/11 05:18:45;;;;;;;29.45;19.50;;;25.90;2201.60;;;;;;5021412;28;20026;-89
2022/01/11 05:21:11;;;;;;;33.75;23.10;;;25.90;2201.60;;;;;;5020864;28;20017;-88
2022/01/11 05:23:37;;;;;;;32.63;21.08;;;25.90;2201.60;;;;;;5021015;28;20093;-89
2022/01/11 05:26:03;;;;;;;32.45;20.92;;;25.90;2201.60;;;;;;5021047;28;20108;-88
2022/01/11 05:28:30;;;;;;;31.48;20.38;;;25.80;2201.60;;;;;;5021012;28;20030;-88
2022/01/11 05:30:56;;;;;;;35.53;23.45;;;25.80;2201.60;;;;;;5021269;28;20025;-88
2022/01/11 05:33:21;;;;;;;28.35;20.42;;;25.80;2201.60;;;;;;5022181;28;20033;-87
2022/01/11 05:35:47;;;;;;;27.65;18.95;;;25.70;2201.60;;;;;;5024598;28;20097;-89
2022/01/11 05:38:14;;;;;;;31.58;20.15;;;25.70;2201.60;;;;;;5024576;28;20101;-88
2022/01/11 05:40:41;;;;;;;32.53;21.98;;;25.70;2201.60;;;;;;5024902;28;20029;-90
2022/01/11 05:43:07;;;;;;;30.98;20.23;;;25.70;2201.60;;;;;;5023717;28;20021;-88
2022/01/11 05:45:33;;;;;;;33.88;21.42;;;25.70;2201.60;;;;;;5023740;28;20048;-88
2022/01/11 05:48:00;;;;;;;33.22;21.95;;;25.60;2201.60;;;;;;5023636;28;20072;-91
2022/01/11 05:50:26;;;;;;;34.63;23.00;;;25.60;2201.60;;;;;;5023975;28;20523;-89
2022/01/11 05:52:52;;;;;;;36.90;23.05;;;25.60;2201.60;;;;;;5024692;28;20017;-88
2022/01/11 05:55:18;;;;;;;71.88;37.80;;;25.60;2201.60;;;;;;5023820;28;20028;-89
2022/01/11 05:57:44;;;;;;;34.78;22.88;;;25.60;2201.60;;;;;;5023490;28;20036;-88
2022/01/11 06:00:15;;;;;;;36.03;23.92;;;25.60;2201.60;;;;;;5024038;28;20021;-89
2022/01/11 06:02:44;;;;;;;43.83;26.77;;;25.60;2201.60;;;;;;5024045;28;20439;-88
2022/01/11 06:05:10;;;;;;;45.28;27.95;;;25.70;2201.60;;;;;;5023668;28;20018;-89
2022/01/11 06:07:37;;;;;;;50.38;29.05;;;25.70;2201.60;;;;;;5024207;28;20036;-88
2022/01/11 06:10:04;;;;;;;42.20;27.38;;;25.60;2201.60;;;;;;5024506;28;20045;-88
2022/01/11 06:12:30;;;;;;;38.42;23.20;;;25.70;2201.60;;;;;;5023945;28;20053;-89
2022/01/11 06:14:56;;;;;;;41.95;23.58;;;25.70;2201.60;;;;;;5024116;28;20048;-90
2022/01/11 06:17:22;;;;;;;29.27;20.50;;;25.60;2201.60;;;;;;5024312;28;20032;-89
2022/01/11 06:19:47;;;;;;;41.30;24.42;;;0.90;2201.60;;;;;;5024423;28;20093;-89
2022/01/11 06:22:13;;;;;;;48.03;30.13;;;25.60;2201.60;;;;;;5024391;28;20112;-91
2022/01/11 06:24:39;;;;;;;44.40;27.20;;;25.60;2201.60;;;;;;5023989;28;20024;-89
2022/01/11 06:27:05;;;;;;;44.45;27.65;;;25.80;2201.60;;;;;;5023196;28;20025;-90
2022/01/11 06:29:31;;;;;;;35.65;23.30;;;25.80;2201.60;;;;;;5023380;28;20033;-89
2022/01/11 06:31:56;;;;;;;32.38;22.10;;;25.70;2201.60;;;;;;5023643;28;20025;-90
2022/01/11 06:34:22;;;;;;;37.35;23.70;;;25.80;2201.60;;;;;;5023738;28;20045;-90
2022/01/11 06:36:48;;;;;;;50.00;33.78;;;25.90;2201.60;;;;;;5023271;28;20108;-90
2022/01/11 06:39:14;;;;;;;53.22;32.78;;;25.80;2201.60;;;;;;5022811;28;20576;-90
2022/01/11 06:41:40;;;;;;;91.70;56.45;;;25.80;2201.60;;;;;;5022721;28;20026;-91
2022/01/11 06:44:06;;;;;;;104.53;64.40;;;25.80;2201.60;;;;;;5022157;28;20104;-88
2022/01/11 06:46:33;;;;;;;84.90;49.28;;;25.90;2201.60;;;;;;5021421;28;20424;-89
2022/01/11 06:49:01;;;;;;;60.65;37.60;;;26.00;2201.60;;;;;;5018963;28;20052;-89
2022/01/11 06:51:27;;;;;;;70.03;45.13;;;26.10;2201.60;;;;;;5022937;28;20453;-90
2022/01/11 06:53:53;;;;;;;52.85;35.58;;;26.10;2201.60;;;;;;5022546;28;20041;-89
2022/01/11 06:56:20;;;;;;;102.50;48.58;;;26.10;2201.60;;;;;;5020299;28;20018;-89
2022/01/11 06:58:46;;;;;;;116.15;55.97;;;26.20;2201.60;;;;;;5020272;28;20518;-91
2022/01/11 07:01:12;;;;;;;84.18;44.00;;;26.20;2201.60;;;;;;5019302;28;20084;-90
2022/01/11 07:03:38;;;;;;;70.60;41.47;;;26.30;2201.60;;;;;;5021142;28;20027;-89
2022/01/11 07:06:04;;;;;;;52.10;33.92;;;26.30;2201.60;;;;;;5021476;28;20729;-87
2022/01/11 07:08:30;;;;;;;46.55;29.90;;;26.40;2201.60;;;;;;5020514;28;20043;-90
2022/01/11 07:10:56;;;;;;;73.50;42.92;;;26.40;2201.60;;;;;;5020546;28;20029;-90
2022/01/11 07:13:22;;;;;;;124.97;58.63;;;26.40;2201.60;;;;;;5021276;28;20342;-89
2022/01/11 07:15:47;;;;;;;158.32;71.65;;;26.40;2201.60;;;;;;5020764;28;20455;-91
2022/01/11 07:18:14;;;;;;;103.43;54.92;;;26.50;2201.60;;;;;;5021060;28;20029;-91
2022/01/11 07:20:43;;;;;;;94.63;51.03;;;26.50;2201.60;;;;;;5022605;28;20080;-88
2022/01/11 07:23:11;;;;;;;96.72;50.38;;;26.50;2201.60;;;;;;5022506;28;20026;-88
2022/01/11 07:25:37;;;;;;;74.53;42.45;;;26.50;2201.60;;;;;;5022490;28;20025;-90
2022/01/11 07:28:04;;;;;;;95.40;52.13;;;26.50;2201.60;;;;;;5022270;28;20033;-89
2022/01/11 07:30:31;;;;;;;87.13;52.30;;;26.50;2201.60;;;;;;5021458;28;20033;-89
2022/01/11 07:32:57;;;;;;;52.28;31.80;;;51.70;2227.20;;;;;;5022522;28;20532;-90
2022/01/11 07:35:23;;;;;;;43.05;24.77;;;26.50;2201.60;;;;;;5021445;28;20132;-90
2022/01/11 07:37:50;;;;;;;91.35;51.67;;;51.30;2227.20;;;;;;5022967;28;20029;-89
2022/01/11 07:40:17;;;;;;;73.03;41.03;;;51.30;2227.20;;;;;;5026667;28;20025;-91
2022/01/11 07:42:43;;;;;;;69.85;36.28;;;51.40;2227.20;;;;;;5026945;28;20026;-89
2022/01/11 07:45:09;;;;;;;87.75;44.60;;;51.40;2227.20;;;;;;5026481;28;20022;-91
2022/01/11 07:47:35;;;;;;;60.17;36.22;;;51.50;2227.20;;;;;;5025379;28;20029;-89
2022/01/11 07:50:01;;;;;;;38.58;27.58;;;51.50;2227.20;;;;;;5026098;28;20037;-91
2022/01/11 07:52:27;;;;;;;48.22;32.78;;;51.60;2227.20;;;;;;5027093;28;20044;-89
2022/01/11 07:54:53;;;;;;;44.25;32.17;;;51.70;2227.20;;;;;;5024931;28;20017;-89
2022/01/11 07:57:19;;;;;;;58.85;34.80;;;51.70;2227.20;;;;;;5026668;28;20026;-89
2022/01/11 07:59:45;;;;;;;58.25;37.47;;;51.70;2227.20;;;;;;5026385;28;20071;-88
2022/01/11 08:02:11;;;;;;;68.85;42.75;;;51.70;2227.20;;;;;;5026104;28;20021;-90
2022/01/11 08:04:37;;;;;;;57.17;35.42;;;51.80;2227.20;;;;;;5026319;28;20118;-88
2022/01/11 08:07:03;;;;;;;71.60;40.40;;;51.80;2227.20;;;;;;5026080;28;20029;-88
2022/01/11 08:09:29;;;;;;;43.10;28.08;;;51.90;2227.20;;;;;;5025113;28;20168;-90
2022/01/11 08:11:58;;;;;;;65.60;37.17;;;51.90;2227.20;;;;;;5026055;28;20025;-90
2022/01/11 08:14:25;;;;;;;66.30;42.45;;;52.00;2227.20;;;;;;5025496;28;20021;-89
2022/01/11 08:16:51;;;;;;;97.65;59.67;;;52.00;2227.20;;;;;;5025131;28;20056;-90
2022/01/11 08:19:17;;;;;;;99.40;68.82;;;76.80;2227.20;;;;;;5022291;28;20404;-91
2022/01/11 08:21:43;;;;;;;57.97;39.95;;;76.80;2227.20;;;;;;5021378;28;20018;-89
2022/01/11 08:24:09;;;;;;;57.95;40.63;;;76.80;2227.20;;;;;;5021637;28;20049;-89
2022/01/11 08:26:35;;;;;;;71.07;47.78;;;76.90;2227.20;;;;;;5023578;28;20021;-90
2022/01/11 08:29:01;;;;;;;89.72;68.32;;;76.90;2227.20;;;;;;5025634;28;20032;-89
2022/01/11 08:31:26;;;;;;;77.57;54.10;;;77.00;2227.20;;;;;;5022551;28;20025;-88
2022/01/11 08:33:52;;;;;;;141.77;95.85;;;77.10;2227.20;;;;;;5035942;28;20038;-86
2022/01/11 08:36:18;;;;;;;204.43;143.55;;;77.00;2227.20;;;;;;5037357;28;20041;-91
2022/01/11 08:38:44;;;;;;;100.43;74.53;;;77.00;2227.20;;;;;;5023899;28;20022;-89
2022/01/11 08:41:10;;;;;;;69.28;48.05;;;77.00;2227.20;;;;;;5023882;28;20208;-89
2022/01/11 08:43:37;;;;;;;96.18;69.05;;;77.00;2227.20;;;;;;5025932;28;20021;-88
2022/01/11 08:46:03;;;;;;;53.08;36.63;;;77.00;2227.20;;;;;;5023748;28;20017;-87
2022/01/11 08:48:30;;;;;;;31.98;20.50;;;77.00;2227.20;;;;;;5020599;28;20045;-88
2022/01/11 08:50:56;;;;;;;143.75;80.72;;;76.90;2227.20;;;;;;5022766;28;20025;-87
2022/01/11 08:53:23;;;;;;;103.05;59.88;;;77.00;2227.20;;;;;;5023330;28;20025;-87
2022/01/11 08:55:50;;;;;;;65.78;38.40;;;77.10;2227.20;;;;;;5024024;28;20516;-85
2022/01/11 08:58:19;;;;;;;49.17;27.55;;;52.10;2227.20;;;;;;5022488;28;20025;-91
2022/01/11 09:00:46;;;;;;;30.73;18.85;;;77.00;2227.20;;;;;;5022315;28;20021;-85
2022/01/11 09:03:12;;;;;;;33.38;21.38;;;77.00;2227.20;;;;;;5041128;28;20051;-85
2022/01/11 09:05:38;;;;;;;27.70;16.50;;;77.00;2227.20;;;;;;5022706;28;20022;-85
2022/01/11 09:08:04;;;;;;;53.00;32.75;;;77.00;2227.20;;;;;;5023214;28;20025;-87
2022/01/11 09:10:30;;;;;;;78.35;49.63;;;77.60;2227.20;;;;;;5020384;28;20060;-86
2022/01/11 09:12:56;;;;;;;51.08;31.20;;;77.10;2227.20;;;;;;5023026;28;20022;-89
2022/01/11 09:15:22;;;;;;;38.90;26.17;;;77.20;2227.20;;;;;;5019826;28;20108;-89
2022/01/11 09:17:48;;;;;;;45.38;27.58;;;77.20;2227.20;;;;;;5023330;28;20068;-86
2022/01/11 09:20:16;;;;;;;62.20;36.53;;;77.30;2227.20;;;;;;5023485;28;20445;-87
2022/01/11 09:22:42;;;;;;;49.03;30.02;;;77.40;2227.20;;;;;;5022785;28;20121;-85
2022/01/11 09:25:10;;;;;;;31.20;20.13;;;77.40;2227.20;;;;;;5021260;28;20057;-86
2022/01/11 09:27:36;;;;;;;46.92;30.20;;;77.40;2227.20;;;;;;5019799;28;20036;-85
2022/01/11 09:30:08;;;;;;;33.75;22.55;;;77.40;2227.20;;;;;;5020205;28;20026;-86
2022/01/11 09:32:35;;;;;;;47.05;30.20;;;77.40;2227.20;;;;;;5019518;28;20021;-90
2022/01/11 09:35:03;;;;;;;30.88;21.67;;;77.30;2227.20;;;;;;5019339;28;20060;-87
2022/01/11 09:37:29;;;;;;;45.17;29.55;;;77.40;2227.20;;;;;;5019771;28;20032;-86
2022/01/11 09:39:55;;;;;;;49.88;34.88;;;77.40;2227.20;;;;;;5019130;28;20021;-86
2022/01/11 09:42:21;;;;;;;56.38;37.70;;;77.40;2227.20;;;;;;5018418;28;20082;-86
2022/01/11 09:44:47;;;;;;;76.10;42.78;;;77.40;2227.20;;;;;;4998290;28;20029;-85
2022/01/11 09:47:13;;;;;;;43.67;26.23;;;77.30;2227.20;;;;;;4998737;28;20033;-86
2022/01/11 09:49:41;;;;;;;47.83;28.02;;;77.30;2227.20;;;;;;4999085;28;20021;-86
2022/01/11 09:52:08;;;;;;;46.25;31.27;;;77.20;2227.20;;;;;;4998875;28;20022;-88
2022/01/11 09:54:40;;;;;;;83.38;49.03;;;77.00;2227.20;;;;;;4998377;28;20113;-87
2022/01/11 09:57:06;;;;;;;58.92;36.85;;;77.10;2227.20;;;;;;4998084;28;20359;-85
2022/01/11 09:59:33;;;;;;;56.25;34.92;;;77.20;2227.20;;;;;;4997642;28;20029;-81
2022/01/11 10:01:59;;;;;;;61.05;38.88;;;77.20;2227.20;;;;;;4996848;28;20022;-78
2022/01/11 10:04:32;;;;;;;47.42;30.60;;;77.30;2227.20;;;;;;5014964;28;20473;-85
2022/01/11 10:06:59;;;;;;;;;;;77.20;2227.20;;;;;;5015458;28;20109;-86
2022/01/11 10:09:28;;;;;;;56.88;35.92;;;77.20;2227.20;;;;;;4997917;28;19905;-83
2022/01/11 10:11:56;;;;;;;78.13;46.20;;;77.20;2227.20;;;;;;4998337;28;20361;-86
2022/01/11 10:14:34;;;;;;;86.43;50.55;;;77.10;2227.20;;;;;;4997829;28;20022;-81
2022/01/11 10:17:18;;;;;;;65.20;38.30;;;77.10;2227.20;;;;;;5014236;28;20036;-86
2022/01/11 10:19:47;;;;;;;73.00;47.30;;;77.10;2227.20;;;;;;4997757;28;20702;-91
2022/01/11 10:22:16;;;;;;;70.15;42.13;;;77.20;2227.20;;;;;;4997313;28;20038;-88
2022/01/11 10:24:45;;;;;;;52.25;30.48;;;77.20;2227.20;;;;;;4997750;28;20049;-83
2022/01/11 10:27:28;;;;;;;48.55;28.92;;;77.20;2227.20;;;;;;4997402;28;20032;-85
2022/01/11 10:30:04;;;;;;;44.92;30.55;;;77.20;2227.20;;;;;;4999064;28;20046;-84
2022/01/11 10:32:36;;;;;;;56.08;34.83;;;77.30;2227.20;;;;;;5017233;28;20026;-83
2022/01/11 10:35:18;;;;;;;49.50;30.63;;;77.30;2227.20;;;;;;5016151;28;20053;-85
2022/01/11 10:37:55;;;;;;;55.42;37.58;;;77.20;2227.20;;;;;;5017064;28;20527;-83
2022/01/11 10:40:32;;;;;;;48.72;31.48;;;77.20;2227.20;;;;;;5017280;28;20029;-86
2022/01/11 10:43:04;;;;;;;43.70;32.95;;;77.20;2227.20;;;;;;5013858;28;20030;-86
2022/01/11 10:45:33;;;;;;;50.63;33.88;;;77.20;2227.20;;;;;;5014425;28;20022;-86
2022/01/11 10:48:03;;;;;;;43.17;30.17;;;77.20;2227.20;;;;;;5014339;28;20037;-87
2022/01/11 10:50:37;;;;;;;52.13;32.40;;;77.10;2227.20;;;;;;5014012;28;20069;-86
2022/01/11 10:53:11;;;;;;;40.47;27.58;;;77.20;2227.20;;;;;;5015111;28;20018;-86
2022/01/11 10:55:37;;;;;;;46.67;29.42;;;77.40;2227.20;;;;;;5014236;28;20018;-86
2022/01/11 10:58:05;;;;;;;43.28;27.52;;;77.40;2227.20;;;;;;5014824;28;20028;-86
2022/01/11 11:00:37;;;;;;;39.55;24.85;;;77.40;2227.20;;;;;;5014224;28;20033;-89
2022/01/11 11:03:12;;;;;;;37.80;25.00;;;77.40;2227.20;;;;;;5014152;28;20026;-86
2022/01/11 11:05:45;;;;;;;41.20;25.48;;;77.40;2227.20;;;;;;5014057;28;20018;-88
2022/01/11 11:08:14;;;;;;;51.67;35.88;;;77.50;2227.20;;;;;;5014240;28;20037;-87
2022/01/11 11:10:47;;;;;;;51.45;34.47;;;77.50;2227.20;;;;;;5014167;28;20477;-84
2022/01/11 11:13:31;;;;;;;67.95;39.90;;;77.50;2227.20;;;;;;5014992;28;20026;-89
2022/01/11 11:16:08;;;;;;;65.72;38.80;;;77.40;2227.20;;;;;;5014384;28;20034;-88
2022/01/11 11:18:47;;;;;;;32.20;21.80;;;77.40;2227.20;;;;;;5014038;28;20058;-88
2022/01/11 11:21:18;;;;;;;35.53;20.33;;;77.30;2227.20;;;;;;5014655;28;20018;-87
2022/01/11 11:23:45;;;;;;;44.03;25.48;;;77.20;2227.20;;;;;;5014818;28;20045;-90
2022/01/11 11:26:12;;;;;;;50.92;29.65;;;77.30;2227.20;;;;;;5014586;28;20156;-88
2022/01/11 11:28:38;;;;;;;38.47;26.35;;;77.40;2227.20;;;;;;5014080;28;20468;-85
2022/01/11 11:31:04;;;;;;;31.95;20.20;;;77.30;2227.20;;;;;;5013707;28;20080;-87
2022/01/11 11:33:30;;;;;;;42.85;28.58;;;77.00;2227.20;;;;;;5013598;28;20054;-86
2022/01/11 11:35:57;;;;;;;60.90;42.08;;;77.50;2227.20;;;;;;5013863;28;20033;-87
2022/01/11 11:38:29;;;;;;;37.33;25.77;;;77.70;2227.20;;;;;;5013806;28;20109;-89
2022/01/11 11:40:56;;;;;;;35.42;24.20;;;77.50;2227.20;;;;;;5013781;28;20026;-86
2022/01/11 11:43:22;;;;;;;41.78;29.40;;;77.50;2227.20;;;;;;5013637;28;20084;-87
2022/01/11 11:45:48;;;;;;;46.60;33.80;;;77.50;2227.20;;;;;;5013702;28;20460;-85
2022/01/11 11:48:16;;;;;;;34.35;22.55;;;77.50;2227.20;;;;;;5013447;28;20041;-86
2022/01/11 11:51:00;;;;;;;45.42;28.92;;;77.50;2227.20;;;;;;5013623;28;20025;-88
2022/01/11 11:53:28;;;;;;;42.72;26.27;;;77.40;2227.20;;;;;;5015314;28;20053;-90
2022/01/11 11:56:14;;;;;;;36.15;23.42;;;77.30;2227.20;;;;;;5013403;28;20026;-85
2022/01/11 11:58:43;;;;;;;49.33;30.10;;;77.30;2227.20;;;;;;4996302;28;20082;-88
2022/01/11 12:01:45;;;;;;;36.15;23.17;;;77.20;2227.20;;;;;;4996498;28;20030;-84
2022/01/11 12:04:15;;;;;;;38.25;25.95;;;77.20;2227.20;;;;;;4995157;28;20026;-88
2022/01/11 12:06:43;;;;;;;38.78;24.17;;;77.00;2227.20;;;;;;4996113;28;20453;-83
2022/01/11 12:09:12;;;;;;;34.58;22.95;;;77.00;2227.20;;;;;;4996238;28;20416;-88
2022/01/11 12:11:42;;;;;;;31.38;21.00;;;77.00;2227.20;;;;;;4998066;28;20025;-86
2022/01/11 12:14:27;;;;;;;32.97;22.45;;;76.90;2227.20;;;;;;4996940;28;20026;-90
2022/01/11 12:16:53;;;;;;;35.38;23.98;;;76.90;2227.20;;;;;;5000513;28;20029;-87
2022/01/11 12:19:41;;;;;;;47.33;29.17;;;76.80;2227.20;;;;;;5016110;28;20025;-90